sensor_id;sensor_type;location;lat;lon;timestamp;pressure;altitude;pressure_sealevel;temperature;humidity
74613;BME280;63119;51.788;8.824;2023-02-01T00:01:45;100277.03;;;4.68;85.89
74613;BME280;63119;51.788;8.824;2023-02-01T00:04:11;100269.41;;;4.62;85.89
74613;BME280;63119;51.788;8.824;2023-02-01T00:06:36;100274.66;;;4.62;86.47
74613;BME280;63119;51.788;8.824;2023-02-01T00:09:02;100269.34;;;4.63;85.71
74613;BME280;63119;51.788;8.824;2023-02-01T00:11:27;100259.97;;;4.58;86.45
74613;BME280;63119;51.788;8.824;2023-02-01T00:13:53;100258.25;;;4.57;86.70
74613;BME280;63119;51.788;8.824;2023-02-01T00:16:20;100250.25;;;4.60;86.48
74613;BME280;63119;51.788;8.824;2023-02-01T00:18:48;100245.09;;;4.58;85.94
74613;BME280;63119;51.788;8.824;2023-02-01T00:21:16;100251.75;;;4.67;85.32
74613;BME280;63119;51.788;8.824;2023-02-01T00:23:41;100251.06;;;4.62;85.83
74613;BME280;63119;51.788;8.824;2023-02-01T00:26:12;100235.03;;;4.69;85.75
74613;BME280;63119;51.788;8.824;2023-02-01T00:28:38;100235.28;;;4.63;85.48
74613;BME280;63119;51.788;8.824;2023-02-01T00:31:05;100230.22;;;4.59;85.55
74613;BME280;63119;51.788;8.824;2023-02-01T00:33:31;100242.72;;;4.52;85.81
74613;BME280;63119;51.788;8.824;2023-02-01T00:35:59;100248.81;;;4.53;86.02
74613;BME280;63119;51.788;8.824;2023-02-01T00:38:25;100256.59;;;4.54;85.81
74613;BME280;63119;51.788;8.824;2023-02-01T00:40:51;100252.47;;;4.49;85.94
74613;BME280;63119;51.788;8.824;2023-02-01T00:43:16;100240.38;;;4.45;86.41
74613;BME280;63119;51.788;8.824;2023-02-01T00:45:41;100245.47;;;4.49;85.70
74613;BME280;63119;51.788;8.824;2023-02-01T00:48:06;100241.31;;;4.44;86.51
74613;BME280;63119;51.788;8.824;2023-02-01T00:50:32;100236.78;;;4.47;85.90
74613;BME280;63119;51.788;8.824;2023-02-01T00:52:57;100229.78;;;4.48;85.40
74613;BME280;63119;51.788;8.824;2023-02-01T00:55:22;100229.91;;;4.45;84.93
74613;BME280;63119;51.788;8.824;2023-02-01T00:57:47;100222.13;;;4.43;84.81
74613;BME280;63119;51.788;8.824;2023-02-01T01:00:13;100228.25;;;4.42;85.14
74613;BME280;63119;51.788;8.824;2023-02-01T01:02:38;100220.22;;;4.47;84.94
74613;BME280;63119;51.788;8.824;2023-02-01T01:05:04;100215.03;;;4.45;84.75
74613;BME280;63119;51.788;8.824;2023-02-01T01:07:29;100215.22;;;4.40;85.58
74613;BME280;63119;51.788;8.824;2023-02-01T01:09:54;100216.88;;;4.43;85.47
74613;BME280;63119;51.788;8.824;2023-02-01T01:12:20;100203.81;;;4.41;85.81
74613;BME280;63119;51.788;8.824;2023-02-01T01:14:45;100200.31;;;4.43;85.55
74613;BME280;63119;51.788;8.824;2023-02-01T01:17:10;100200.06;;;4.49;84.93
74613;BME280;63119;51.788;8.824;2023-02-01T01:19:36;100202.72;;;4.47;84.88
74613;BME280;63119;51.788;8.824;2023-02-01T01:22:01;100209.81;;;4.45;85.72
74613;BME280;63119;51.788;8.824;2023-02-01T01:24:27;100203.47;;;4.51;85.87
74613;BME280;63119;51.788;8.824;2023-02-01T01:26:52;100199.06;;;4.51;84.91
74613;BME280;63119;51.788;8.824;2023-02-01T01:29:17;100202.69;;;4.49;86.01
74613;BME280;63119;51.788;8.824;2023-02-01T01:31:42;100192.59;;;4.60;85.91
74613;BME280;63119;51.788;8.824;2023-02-01T01:34:08;100191.63;;;4.62;84.83
74613;BME280;63119;51.788;8.824;2023-02-01T01:36:33;100191.59;;;4.64;85.44
74613;BME280;63119;51.788;8.824;2023-02-01T01:38:58;100196.75;;;4.65;85.68
74613;BME280;63119;51.788;8.824;2023-02-01T01:41:28;100191.25;;;4.71;85.50
74613;BME280;63119;51.788;8.824;2023-02-01T01:43:59;100191.94;;;4.76;85.29
74613;BME280;63119;51.788;8.824;2023-02-01T01:46:28;100191.84;;;4.78;84.93
74613;BME280;63119;51.788;8.824;2023-02-01T01:51:36;100191.00;;;4.77;85.57
74613;BME280;63119;51.788;8.824;2023-02-01T01:54:11;100196.97;;;4.81;86.46
74613;BME280;63119;51.788;8.824;2023-02-01T01:56:37;100184.69;;;4.83;86.64
74613;BME280;63119;51.788;8.824;2023-02-01T01:59:03;100184.47;;;4.87;86.34
74613;BME280;63119;51.788;8.824;2023-02-01T02:01:29;100186.13;;;4.90;85.86
74613;BME280;63119;51.788;8.824;2023-02-01T02:03:55;100183.31;;;4.94;86.06
74613;BME280;63119;51.788;8.824;2023-02-01T02:06:34;100176.44;;;4.92;86.52
74613;BME280;63119;51.788;8.824;2023-02-01T02:09:02;100161.53;;;4.92;85.84
74613;BME280;63119;51.788;8.824;2023-02-01T02:11:28;100174.50;;;4.95;85.65
74613;BME280;63119;51.788;8.824;2023-02-01T02:13:54;100163.00;;;5.00;86.31
74613;BME280;63119;51.788;8.824;2023-02-01T02:16:38;100156.84;;;5.01;86.44
74613;BME280;63119;51.788;8.824;2023-02-01T02:21:52;100153.00;;;5.08;85.65
74613;BME280;63119;51.788;8.824;2023-02-01T02:25:01;100143.50;;;5.05;85.53
74613;BME280;63119;51.788;8.824;2023-02-01T02:33:47;100126.53;;;5.14;84.79
74613;BME280;63119;51.788;8.824;2023-02-01T02:36:38;100131.91;;;5.11;84.88
74613;BME280;63119;51.788;8.824;2023-02-01T02:42:32;100117.03;;;5.11;84.02
74613;BME280;63119;51.788;8.824;2023-02-01T02:45:32;100117.97;;;5.10;83.79
74613;BME280;63119;51.788;8.824;2023-02-01T02:48:39;100115.22;;;5.13;83.33
74613;BME280;63119;51.788;8.824;2023-02-01T02:51:13;100118.75;;;5.12;83.60
74613;BME280;63119;51.788;8.824;2023-02-01T02:54:08;100111.59;;;5.16;83.35
74613;BME280;63119;51.788;8.824;2023-02-01T02:56:56;100107.06;;;5.19;82.85
74613;BME280;63119;51.788;8.824;2023-02-01T02:59:43;100111.38;;;5.20;81.92
74613;BME280;63119;51.788;8.824;2023-02-01T03:02:29;100099.19;;;5.19;82.50
74613;BME280;63119;51.788;8.824;2023-02-01T03:05:14;100090.66;;;5.14;81.85
74613;BME280;63119;51.788;8.824;2023-02-01T03:10:17;100083.72;;;5.13;81.70
74613;BME280;63119;51.788;8.824;2023-02-01T03:12:49;100078.22;;;5.19;81.87
74613;BME280;63119;51.788;8.824;2023-02-01T03:15:26;100075.91;;;5.12;81.62
74613;BME280;63119;51.788;8.824;2023-02-01T03:17:55;100060.13;;;5.13;80.78
74613;BME280;63119;51.788;8.824;2023-02-01T03:20:22;100058.09;;;5.20;81.07
74613;BME280;63119;51.788;8.824;2023-02-01T03:22:50;100060.63;;;5.21;80.58
74613;BME280;63119;51.788;8.824;2023-02-01T03:25:29;100059.91;;;5.18;80.90
74613;BME280;63119;51.788;8.824;2023-02-01T03:28:05;100070.41;;;5.18;80.32
74613;BME280;63119;51.788;8.824;2023-02-01T03:30:34;100066.50;;;5.26;80.28
74613;BME280;63119;51.788;8.824;2023-02-01T03:33:04;100071.25;;;5.18;80.76
74613;BME280;63119;51.788;8.824;2023-02-01T03:35:41;100059.91;;;5.18;80.04
74613;BME280;63119;51.788;8.824;2023-02-01T03:38:24;100063.19;;;5.23;79.73
74613;BME280;63119;51.788;8.824;2023-02-01T03:41:00;100060.28;;;5.29;79.63
74613;BME280;63119;51.788;8.824;2023-02-01T03:43:29;100045.94;;;5.17;80.04
74613;BME280;63119;51.788;8.824;2023-02-01T03:46:00;100043.75;;;5.27;79.37
74613;BME280;63119;51.788;8.824;2023-02-01T03:48:27;100046.03;;;5.34;79.02
74613;BME280;63119;51.788;8.824;2023-02-01T03:50:56;100037.09;;;5.20;79.44
74613;BME280;63119;51.788;8.824;2023-02-01T03:53:23;100031.91;;;5.18;79.29
74613;BME280;63119;51.788;8.824;2023-02-01T03:55:50;100030.06;;;5.20;78.95
74613;BME280;63119;51.788;8.824;2023-02-01T03:58:20;100037.94;;;5.20;79.11
74613;BME280;63119;51.788;8.824;2023-02-01T04:00:58;100035.31;;;5.20;78.57
74613;BME280;63119;51.788;8.824;2023-02-01T04:03:24;100031.00;;;5.19;79.51
74613;BME280;63119;51.788;8.824;2023-02-01T04:05:52;100030.28;;;5.16;78.88
74613;BME280;63119;51.788;8.824;2023-02-01T04:08:20;100031.63;;;5.24;79.23
74613;BME280;63119;51.788;8.824;2023-02-01T04:10:46;100014.41;;;5.19;79.43
74613;BME280;63119;51.788;8.824;2023-02-01T04:13:11;100016.94;;;5.20;79.21
74613;BME280;63119;51.788;8.824;2023-02-01T04:15:37;100021.38;;;5.20;79.01
74613;BME280;63119;51.788;8.824;2023-02-01T04:18:02;100029.16;;;5.21;78.69
74613;BME280;63119;51.788;8.824;2023-02-01T04:20:28;100012.69;;;5.18;79.12
74613;BME280;63119;51.788;8.824;2023-02-01T04:22:53;100011.69;;;5.20;79.19
74613;BME280;63119;51.788;8.824;2023-02-01T04:25:19;100014.31;;;5.20;78.70
74613;BME280;63119;51.788;8.824;2023-02-01T04:27:44;100001.28;;;5.19;78.76
74613;BME280;63119;51.788;8.824;2023-02-01T04:30:11;99997.63;;;5.23;78.75
74613;BME280;63119;51.788;8.824;2023-02-01T04:32:37;99999.81;;;5.32;78.69
74613;BME280;63119;51.788;8.824;2023-02-01T04:35:02;100002.50;;;5.30;78.22
74613;BME280;63119;51.788;8.824;2023-02-01T04:37:28;100002.63;;;5.27;78.98
74613;BME280;63119;51.788;8.824;2023-02-01T04:39:54;99988.88;;;5.22;78.99
74613;BME280;63119;51.788;8.824;2023-02-01T04:42:19;99993.72;;;5.31;78.79
74613;BME280;63119;51.788;8.824;2023-02-01T04:44:44;99996.25;;;5.33;78.53
74613;BME280;63119;51.788;8.824;2023-02-01T04:47:09;99991.22;;;5.28;79.16
74613;BME280;63119;51.788;8.824;2023-02-01T04:49:35;99986.84;;;5.29;78.73
74613;BME280;63119;51.788;8.824;2023-02-01T04:52:00;99988.59;;;5.28;79.11
74613;BME280;63119;51.788;8.824;2023-02-01T04:54:25;99986.03;;;5.27;79.25
74613;BME280;63119;51.788;8.824;2023-02-01T04:56:50;99994.84;;;5.26;78.81
74613;BME280;63119;51.788;8.824;2023-02-01T04:59:16;99983.66;;;5.41;78.50
74613;BME280;63119;51.788;8.824;2023-02-01T05:01:41;99975.34;;;5.31;79.62
74613;BME280;63119;51.788;8.824;2023-02-01T05:04:06;99976.88;;;5.35;79.02
74613;BME280;63119;51.788;8.824;2023-02-01T05:06:31;99974.50;;;5.31;79.38
74613;BME280;63119;51.788;8.824;2023-02-01T05:08:57;99969.44;;;5.26;79.37
74613;BME280;63119;51.788;8.824;2023-02-01T05:11:22;99979.78;;;5.29;80.31
74613;BME280;63119;51.788;8.824;2023-02-01T05:14:06;99980.78;;;5.27;80.69
74613;BME280;63119;51.788;8.824;2023-02-01T05:16:31;99985.19;;;5.26;80.26
74613;BME280;63119;51.788;8.824;2023-02-01T05:18:56;99982.56;;;5.26;80.93
74613;BME280;63119;51.788;8.824;2023-02-01T05:21:21;99974.78;;;5.25;81.15
74613;BME280;63119;51.788;8.824;2023-02-01T05:23:47;99973.28;;;5.19;81.99
74613;BME280;63119;51.788;8.824;2023-02-01T05:26:31;99979.94;;;5.26;80.03
74613;BME280;63119;51.788;8.824;2023-02-01T05:28:56;99962.66;;;5.22;81.07
74613;BME280;63119;51.788;8.824;2023-02-01T05:31:23;99967.91;;;5.22;81.17
74613;BME280;63119;51.788;8.824;2023-02-01T05:33:48;99972.28;;;5.22;81.71
74613;BME280;63119;51.788;8.824;2023-02-01T05:36:14;99971.59;;;5.18;81.73
74613;BME280;63119;51.788;8.824;2023-02-01T05:38:39;99962.81;;;5.19;81.46
74613;BME280;63119;51.788;8.824;2023-02-01T05:41:04;99966.34;;;5.18;81.95
74613;BME280;63119;51.788;8.824;2023-02-01T05:43:29;99967.19;;;5.19;81.80
74613;BME280;63119;51.788;8.824;2023-02-01T05:45:55;99960.22;;;5.18;82.83
74613;BME280;63119;51.788;8.824;2023-02-01T05:48:20;99956.13;;;5.12;81.61
74613;BME280;63119;51.788;8.824;2023-02-01T05:50:45;99951.66;;;5.14;82.37
74613;BME280;63119;51.788;8.824;2023-02-01T05:53:11;99954.00;;;5.20;81.69
74613;BME280;63119;51.788;8.824;2023-02-01T05:55:36;99955.41;;;5.09;82.82
74613;BME280;63119;51.788;8.824;2023-02-01T05:58:02;99960.66;;;5.09;83.08
74613;BME280;63119;51.788;8.824;2023-02-01T06:00:28;99942.16;;;5.12;82.72
74613;BME280;63119;51.788;8.824;2023-02-01T06:02:53;99942.94;;;5.14;82.64
74613;BME280;63119;51.788;8.824;2023-02-01T06:05:18;99941.25;;;5.13;82.28
74613;BME280;63119;51.788;8.824;2023-02-01T06:07:43;99945.63;;;5.12;82.37
74613;BME280;63119;51.788;8.824;2023-02-01T06:10:09;99944.50;;;5.18;82.66
74613;BME280;63119;51.788;8.824;2023-02-01T06:12:35;99936.72;;;5.16;82.22
74613;BME280;63119;51.788;8.824;2023-02-01T06:15:00;99942.94;;;5.14;81.88
74613;BME280;63119;51.788;8.824;2023-02-01T06:17:25;99937.56;;;5.17;81.77
74613;BME280;63119;51.788;8.824;2023-02-01T06:19:50;99932.72;;;5.26;81.04
74613;BME280;63119;51.788;8.824;2023-02-01T06:22:16;99944.34;;;5.21;80.93
74613;BME280;63119;51.788;8.824;2023-02-01T06:24:42;99943.44;;;5.22;80.86
74613;BME280;63119;51.788;8.824;2023-02-01T06:27:07;99931.94;;;5.24;80.41
74613;BME280;63119;51.788;8.824;2023-02-01T06:29:34;99936.19;;;5.27;80.41
74613;BME280;63119;51.788;8.824;2023-02-01T06:31:59;99940.53;;;5.28;80.17
74613;BME280;63119;51.788;8.824;2023-02-01T06:34:24;99932.13;;;5.38;79.65
74613;BME280;63119;51.788;8.824;2023-02-01T06:36:50;99946.06;;;5.40;79.34
74613;BME280;63119;51.788;8.824;2023-02-01T06:39:15;99930.66;;;5.33;79.89
74613;BME280;63119;51.788;8.824;2023-02-01T06:41:45;99941.53;;;5.44;79.14
74613;BME280;63119;51.788;8.824;2023-02-01T06:44:11;99952.06;;;5.42;79.03
74613;BME280;63119;51.788;8.824;2023-02-01T06:46:36;99947.25;;;5.33;79.24
74613;BME280;63119;51.788;8.824;2023-02-01T06:49:01;99961.94;;;5.37;79.27
74613;BME280;63119;51.788;8.824;2023-02-01T06:51:27;99960.09;;;5.39;79.58
74613;BME280;63119;51.788;8.824;2023-02-01T06:53:54;99982.94;;;5.37;80.03
74613;BME280;63119;51.788;8.824;2023-02-01T06:56:19;99988.03;;;5.40;79.57
74613;BME280;63119;51.788;8.824;2023-02-01T06:58:45;99979.31;;;5.40;79.54
74613;BME280;63119;51.788;8.824;2023-02-01T07:01:11;99978.31;;;5.42;79.16
74613;BME280;63119;51.788;8.824;2023-02-01T07:03:37;99989.56;;;5.44;79.08
74613;BME280;63119;51.788;8.824;2023-02-01T07:06:03;99986.94;;;5.44;79.33
74613;BME280;63119;51.788;8.824;2023-02-01T07:08:30;100000.06;;;5.44;79.21
74613;BME280;63119;51.788;8.824;2023-02-01T07:10:56;99989.38;;;5.49;78.99
74613;BME280;63119;51.788;8.824;2023-02-01T07:13:22;99986.66;;;5.50;78.34
74613;BME280;63119;51.788;8.824;2023-02-01T07:15:47;99993.91;;;5.45;79.05
74613;BME280;63119;51.788;8.824;2023-02-01T07:18:13;99995.25;;;5.54;78.60
74613;BME280;63119;51.788;8.824;2023-02-01T07:20:39;99997.88;;;5.54;78.81
74613;BME280;63119;51.788;8.824;2023-02-01T07:23:04;99997.25;;;5.49;78.90
74613;BME280;63119;51.788;8.824;2023-02-01T07:25:30;100000.88;;;5.46;79.06
74613;BME280;63119;51.788;8.824;2023-02-01T07:27:55;100005.13;;;5.49;78.71
74613;BME280;63119;51.788;8.824;2023-02-01T07:30:20;100000.94;;;5.45;79.33
74613;BME280;63119;51.788;8.824;2023-02-01T07:32:45;100006.13;;;5.46;79.12
74613;BME280;63119;51.788;8.824;2023-02-01T07:35:11;100009.50;;;5.48;78.37
74613;BME280;63119;51.788;8.824;2023-02-01T07:37:36;100002.78;;;5.62;77.93
74613;BME280;63119;51.788;8.824;2023-02-01T07:40:01;100005.53;;;5.59;77.42
74613;BME280;63119;51.788;8.824;2023-02-01T07:42:26;100011.69;;;5.58;77.98
74613;BME280;63119;51.788;8.824;2023-02-01T07:44:52;100010.94;;;5.56;77.88
74613;BME280;63119;51.788;8.824;2023-02-01T07:47:17;100016.09;;;5.57;78.04
74613;BME280;63119;51.788;8.824;2023-02-01T07:49:42;100016.66;;;5.64;77.50
74613;BME280;63119;51.788;8.824;2023-02-01T07:52:07;100022.69;;;5.66;76.88
74613;BME280;63119;51.788;8.824;2023-02-01T07:54:33;100023.19;;;5.74;76.70
74613;BME280;63119;51.788;8.824;2023-02-01T07:56:58;100032.22;;;5.68;78.12
74613;BME280;63119;51.788;8.824;2023-02-01T07:59:23;100037.53;;;5.67;77.28
74613;BME280;63119;51.788;8.824;2023-02-01T08:01:48;100040.16;;;5.67;77.45
74613;BME280;63119;51.788;8.824;2023-02-01T08:04:14;100034.84;;;5.68;77.51
74613;BME280;63119;51.788;8.824;2023-02-01T08:06:39;100029.72;;;5.65;77.95
74613;BME280;63119;51.788;8.824;2023-02-01T08:09:05;100043.69;;;5.66;77.48
74613;BME280;63119;51.788;8.824;2023-02-01T08:11:31;100043.53;;;5.69;77.78
74613;BME280;63119;51.788;8.824;2023-02-01T08:13:57;100052.28;;;5.69;77.11
74613;BME280;63119;51.788;8.824;2023-02-01T08:16:23;100052.13;;;5.72;76.86
74613;BME280;63119;51.788;8.824;2023-02-01T08:18:49;100046.59;;;5.78;76.74
74613;BME280;63119;51.788;8.824;2023-02-01T08:21:18;100053.13;;;5.70;77.83
74613;BME280;63119;51.788;8.824;2023-02-01T08:23:44;100060.84;;;5.73;78.25
74613;BME280;63119;51.788;8.824;2023-02-01T08:26:12;100057.59;;;5.68;77.91
74613;BME280;63119;51.788;8.824;2023-02-01T08:28:40;100065.63;;;5.65;78.79
74613;BME280;63119;51.788;8.824;2023-02-01T08:31:16;100076.84;;;5.68;78.94
74613;BME280;63119;51.788;8.824;2023-02-01T08:33:44;100067.16;;;5.69;78.97
74613;BME280;63119;51.788;8.824;2023-02-01T08:36:12;100063.63;;;5.70;78.52
74613;BME280;63119;51.788;8.824;2023-02-01T08:38:39;100057.66;;;5.66;78.94
74613;BME280;63119;51.788;8.824;2023-02-01T08:43:31;100067.81;;;5.74;78.70
74613;BME280;63119;51.788;8.824;2023-02-01T08:45:56;100067.38;;;5.83;77.54
74613;BME280;63119;51.788;8.824;2023-02-01T08:48:21;100067.59;;;5.78;78.03
74613;BME280;63119;51.788;8.824;2023-02-01T08:50:46;100070.16;;;5.80;77.90
74613;BME280;63119;51.788;8.824;2023-02-01T08:53:12;100064.06;;;5.79;78.58
74613;BME280;63119;51.788;8.824;2023-02-01T08:55:39;100069.34;;;5.78;78.46
74613;BME280;63119;51.788;8.824;2023-02-01T08:58:04;100057.88;;;5.80;78.31
74613;BME280;63119;51.788;8.824;2023-02-01T09:00:29;100064.09;;;5.78;78.33
74613;BME280;63119;51.788;8.824;2023-02-01T09:02:55;100060.09;;;5.71;79.07
74613;BME280;63119;51.788;8.824;2023-02-01T09:05:20;100054.84;;;5.71;78.82
74613;BME280;63119;51.788;8.824;2023-02-01T09:07:47;100058.09;;;5.76;78.59
74613;BME280;63119;51.788;8.824;2023-02-01T09:10:12;100070.31;;;5.77;78.79
74613;BME280;63119;51.788;8.824;2023-02-01T09:12:37;100061.19;;;5.84;78.76
74613;BME280;63119;51.788;8.824;2023-02-01T09:15:03;100050.22;;;5.94;78.91
74613;BME280;63119;51.788;8.824;2023-02-01T09:17:31;100063.56;;;5.90;77.76
74613;BME280;63119;51.788;8.824;2023-02-01T09:19:56;100063.72;;;5.87;77.64
74613;BME280;63119;51.788;8.824;2023-02-01T09:22:21;100059.09;;;5.92;76.80
74613;BME280;63119;51.788;8.824;2023-02-01T09:24:47;100073.00;;;5.94;76.45
74613;BME280;63119;51.788;8.824;2023-02-01T09:27:12;100061.50;;;5.96;76.70
74613;BME280;63119;51.788;8.824;2023-02-01T09:29:37;100050.63;;;6.04;76.28
74613;BME280;63119;51.788;8.824;2023-02-01T09:32:03;100053.41;;;6.01;76.50
74613;BME280;63119;51.788;8.824;2023-02-01T09:34:28;100055.94;;;6.02;76.88
74613;BME280;63119;51.788;8.824;2023-02-01T09:36:54;100062.22;;;6.00;76.35
74613;BME280;63119;51.788;8.824;2023-02-01T09:39:19;100054.56;;;5.95;77.23
74613;BME280;63119;51.788;8.824;2023-02-01T09:47:02;100061.59;;;5.95;76.88
74613;BME280;63119;51.788;8.824;2023-02-01T09:49:30;100054.91;;;5.88;77.64
74613;BME280;63119;51.788;8.824;2023-02-01T09:51:57;100057.53;;;5.88;77.14
74613;BME280;63119;51.788;8.824;2023-02-01T09:54:26;100062.50;;;5.94;77.30
74613;BME280;63119;51.788;8.824;2023-02-01T09:57:00;100061.78;;;5.90;77.82
74613;BME280;63119;51.788;8.824;2023-02-01T09:59:52;100069.75;;;5.89;78.08
74613;BME280;63119;51.788;8.824;2023-02-01T10:02:21;100071.44;;;5.90;77.90
74613;BME280;63119;51.788;8.824;2023-02-01T10:04:48;100066.53;;;5.82;78.49
74613;BME280;63119;51.788;8.824;2023-02-01T10:07:26;100070.78;;;5.85;78.62
74613;BME280;63119;51.788;8.824;2023-02-01T10:10:15;100060.44;;;5.82;78.10
74613;BME280;63119;51.788;8.824;2023-02-01T10:13:13;100066.59;;;5.81;78.35
74613;BME280;63119;51.788;8.824;2023-02-01T10:24:16;100080.41;;;5.86;78.60
74613;BME280;63119;51.788;8.824;2023-02-01T10:27:06;100062.78;;;5.88;77.58
74613;BME280;63119;51.788;8.824;2023-02-01T10:29:40;100058.53;;;6.04;77.30
74613;BME280;63119;51.788;8.824;2023-02-01T10:32:19;100054.94;;;6.05;77.34
74613;BME280;63119;51.788;8.824;2023-02-01T10:34:49;100050.84;;;5.99;77.20
74613;BME280;63119;51.788;8.824;2023-02-01T10:39:48;100044.44;;;6.05;77.85
74613;BME280;63119;51.788;8.824;2023-02-01T10:42:16;100039.00;;;5.91;77.88
74613;BME280;63119;51.788;8.824;2023-02-01T10:44:44;100040.34;;;5.99;77.88
74613;BME280;63119;51.788;8.824;2023-02-01T10:47:10;100031.41;;;6.03;78.17
74613;BME280;63119;51.788;8.824;2023-02-01T10:49:52;100034.38;;;5.96;78.26
74613;BME280;63119;51.788;8.824;2023-02-01T10:52:36;100028.81;;;6.02;78.49
74613;BME280;63119;51.788;8.824;2023-02-01T10:57:58;100025.38;;;6.01;77.92
74613;BME280;63119;51.788;8.824;2023-02-01T11:00:24;100031.13;;;5.91;78.76
74613;BME280;63119;51.788;8.824;2023-02-01T11:02:49;100023.19;;;5.92;78.07
74613;BME280;63119;51.788;8.824;2023-02-01T11:05:15;100022.09;;;5.96;78.20
74613;BME280;63119;51.788;8.824;2023-02-01T11:07:48;100019.47;;;5.96;78.30
74613;BME280;63119;51.788;8.824;2023-02-01T11:10:43;100022.03;;;5.98;77.76
74613;BME280;63119;51.788;8.824;2023-02-01T11:13:14;100022.91;;;5.98;78.35
74613;BME280;63119;51.788;8.824;2023-02-01T11:15:46;100022.91;;;5.98;78.60
74613;BME280;63119;51.788;8.824;2023-02-01T11:18:18;100012.78;;;6.08;78.06
74613;BME280;63119;51.788;8.824;2023-02-01T11:20:46;100008.47;;;6.07;77.58
74613;BME280;63119;51.788;8.824;2023-02-01T11:23:25;99997.31;;;6.02;78.29
74613;BME280;63119;51.788;8.824;2023-02-01T11:26:40;99990.84;;;6.09;77.48
74613;BME280;63119;51.788;8.824;2023-02-01T11:29:03;99986.50;;;6.08;76.94
74613;BME280;63119;51.788;8.824;2023-02-01T11:31:29;99985.38;;;6.14;76.68
74613;BME280;63119;51.788;8.824;2023-02-01T11:34:04;99982.97;;;6.09;77.28
74613;BME280;63119;51.788;8.824;2023-02-01T11:36:33;99975.09;;;6.09;77.53
74613;BME280;63119;51.788;8.824;2023-02-01T11:41:55;99964.19;;;6.17;76.69
74613;BME280;63119;51.788;8.824;2023-02-01T11:44:29;99961.63;;;6.15;77.08
74613;BME280;63119;51.788;8.824;2023-02-01T11:46:55;99952.19;;;6.11;76.93
74613;BME280;63119;51.788;8.824;2023-02-01T11:49:23;99955.22;;;6.21;76.36
74613;BME280;63119;51.788;8.824;2023-02-01T11:52:17;99950.81;;;6.21;76.62
74613;BME280;63119;51.788;8.824;2023-02-01T11:57:45;99958.41;;;6.27;76.71
74613;BME280;63119;51.788;8.824;2023-02-01T12:00:37;99939.56;;;6.19;76.99
74613;BME280;63119;51.788;8.824;2023-02-01T12:09:31;99923.47;;;6.08;77.11
74613;BME280;63119;51.788;8.824;2023-02-01T12:12:16;99908.41;;;6.12;76.61
74613;BME280;63119;51.788;8.824;2023-02-01T12:14:53;99913.44;;;6.16;76.88
74613;BME280;63119;51.788;8.824;2023-02-01T12:20:18;99896.06;;;6.14;77.15
74613;BME280;63119;51.788;8.824;2023-02-01T12:26:26;99884.75;;;6.12;78.18
74613;BME280;63119;51.788;8.824;2023-02-01T12:30:00;99889.09;;;6.13;78.99
74613;BME280;63119;51.788;8.824;2023-02-01T12:34:37;99893.25;;;5.99;80.65
74613;BME280;63119;51.788;8.824;2023-02-01T12:42:37;99868.22;;;5.75;83.05
74613;BME280;63119;51.788;8.824;2023-02-01T12:45:26;99873.41;;;5.77;83.60
74613;BME280;63119;51.788;8.824;2023-02-01T12:47:59;99865.59;;;5.75;83.39
74613;BME280;63119;51.788;8.824;2023-02-01T12:50:49;99851.31;;;5.64;83.53
74613;BME280;63119;51.788;8.824;2023-02-01T12:53:22;99844.44;;;5.61;84.05
74613;BME280;63119;51.788;8.824;2023-02-01T12:55:54;99855.31;;;5.71;85.20
74613;BME280;63119;51.788;8.824;2023-02-01T12:58:24;99847.75;;;5.65;84.56
74613;BME280;63119;51.788;8.824;2023-02-01T13:01:40;99844.75;;;5.55;85.49
74613;BME280;63119;51.788;8.824;2023-02-01T13:04:13;99840.19;;;5.59;86.23
74613;BME280;63119;51.788;8.824;2023-02-01T13:06:46;99833.69;;;5.48;86.41
74613;BME280;63119;51.788;8.824;2023-02-01T13:09:27;99841.25;;;5.37;87.33
74613;BME280;63119;51.788;8.824;2023-02-01T13:11:58;99835.72;;;5.43;86.32
74613;BME280;63119;51.788;8.824;2023-02-01T13:14:41;99846.19;;;5.43;86.80
74613;BME280;63119;51.788;8.824;2023-02-01T13:17:15;99852.44;;;5.41;87.29
74613;BME280;63119;51.788;8.824;2023-02-01T13:19:55;99866.41;;;5.41;88.25
74613;BME280;63119;51.788;8.824;2023-02-01T13:22:31;99836.38;;;5.30;88.86
74613;BME280;63119;51.788;8.824;2023-02-01T13:25:12;99845.84;;;5.32;88.21
74613;BME280;63119;51.788;8.824;2023-02-01T13:27:38;99858.97;;;5.32;89.45
74613;BME280;63119;51.788;8.824;2023-02-01T13:30:11;99843.38;;;5.29;88.90
74613;BME280;63119;51.788;8.824;2023-02-01T13:33:24;99850.19;;;5.33;89.12
74613;BME280;63119;51.788;8.824;2023-02-01T13:36:43;99837.16;;;5.32;89.04
74613;BME280;63119;51.788;8.824;2023-02-01T13:39:10;99840.75;;;5.29;88.57
74613;BME280;63119;51.788;8.824;2023-02-01T13:42:11;99842.41;;;5.32;89.88
74613;BME280;63119;51.788;8.824;2023-02-01T13:45:01;99841.41;;;5.34;89.53
74613;BME280;63119;51.788;8.824;2023-02-01T13:47:40;99846.50;;;5.37;89.35
74613;BME280;63119;51.788;8.824;2023-02-01T13:50:26;99838.63;;;5.37;90.04
74613;BME280;63119;51.788;8.824;2023-02-01T13:52:58;99841.41;;;5.34;89.96
74613;BME280;63119;51.788;8.824;2023-02-01T13:55:27;99835.31;;;5.34;89.22
74613;BME280;63119;51.788;8.824;2023-02-01T13:58:01;99847.25;;;5.39;89.00
74613;BME280;63119;51.788;8.824;2023-02-01T14:00:36;99853.44;;;5.38;89.89
74613;BME280;63119;51.788;8.824;2023-02-01T14:03:06;99858.66;;;5.38;89.69
74613;BME280;63119;51.788;8.824;2023-02-01T14:13:32;99841.34;;;5.53;89.06
74613;BME280;63119;51.788;8.824;2023-02-01T14:23:42;99823.81;;;5.53;88.82
74613;BME280;63119;51.788;8.824;2023-02-01T14:26:10;99833.31;;;5.56;89.36
74613;BME280;63119;51.788;8.824;2023-02-01T14:28:41;99825.97;;;5.63;89.10
74613;BME280;63119;51.788;8.824;2023-02-01T14:31:39;99833.22;;;5.58;89.00
74613;BME280;63119;51.788;8.824;2023-02-01T14:34:16;99838.34;;;5.61;88.89
74613;BME280;63119;51.788;8.824;2023-02-01T14:42:26;99804.50;;;5.72;88.37
74613;BME280;63119;51.788;8.824;2023-02-01T14:47:37;99790.31;;;5.76;87.61
74613;BME280;63119;51.788;8.824;2023-02-01T14:55:51;99779.81;;;5.76;87.60
74613;BME280;63119;51.788;8.824;2023-02-01T15:00:55;99808.47;;;5.80;86.15